SHT8B EGLL-EGPH
Flight info
| Callsign | SHT8B |
|---|---|
| Flight time | 0h 58m |
| Altitude | 32000 |
| Route | UMLAT T418 WELIN T420 TNT UN57 POL UN601 RIBEL DCT INPIP |
| Aircraft | A320/M-SDE3FGHIRWY/LB1 |
Departure
| Time | 2026-04-20 05:25 |
|---|---|
| Airport | London Heathrow Airport (EGLL) |
Arrival
| Time | 2026-04-20 06:23 |
|---|---|
| Airport | Edinburgh Airport (EGPH) |
| Time | Latitude | Longitude | Altitude | Speed | Heading |
|---|---|---|---|---|---|
| 2026-04-20 04:39 | 51.47402 | -0.48832 | 86 ft | 0 kts | 179° |
| 2026-04-20 05:11 | 51.47418 | -0.48832 | 88 ft | 4 kts | 179° |
| 2026-04-20 05:12 | 51.47440 | -0.48832 | 86 ft | 2 kts | 179° |
| 2026-04-20 05:12 | 51.47466 | -0.48834 | 86 ft | 4 kts | 163° |
| 2026-04-20 05:12 | 51.47483 | -0.48854 | 90 ft | 3 kts | 106° |
| 2026-04-20 05:12 | 51.47488 | -0.48879 | 89 ft | 0 kts | 103° |
| 2026-04-20 05:17 | 51.47488 | -0.48876 | 89 ft | 1 kts | 99° |
| 2026-04-20 05:17 | 51.47487 | -0.48838 | 88 ft | 8 kts | 91° |
| 2026-04-20 05:17 | 51.47488 | -0.48684 | 86 ft | 19 kts | 94° |
| 2026-04-20 05:18 | 51.47482 | -0.48484 | 88 ft | 13 kts | 119° |
| 2026-04-20 05:18 | 51.47419 | -0.48472 | 89 ft | 11 kts | 182° |
| 2026-04-20 05:18 | 51.47372 | -0.48472 | 88 ft | 7 kts | 180° |
| 2026-04-20 05:18 | 51.47308 | -0.48472 | 87 ft | 11 kts | 180° |
| 2026-04-20 05:19 | 51.47218 | -0.48474 | 86 ft | 15 kts | 180° |
| 2026-04-20 05:19 | 51.47099 | -0.48475 | 86 ft | 19 kts | 179° |
| 2026-04-20 05:19 | 51.46968 | -0.48470 | 88 ft | 17 kts | 178° |
| 2026-04-20 05:19 | 51.46934 | -0.48468 | 89 ft | 0 kts | 178° |
| 2026-04-20 05:20 | 51.46930 | -0.48468 | 86 ft | 2 kts | 178° |
| 2026-04-20 05:20 | 51.46903 | -0.48467 | 86 ft | 6 kts | 178° |
| 2026-04-20 05:20 | 51.46851 | -0.48464 | 86 ft | 9 kts | 178° |
| 2026-04-20 05:21 | 51.46773 | -0.48461 | 86 ft | 13 kts | 178° |
| 2026-04-20 05:21 | 51.46668 | -0.48468 | 88 ft | 17 kts | 182° |
| 2026-04-20 05:21 | 51.46605 | -0.48469 | 86 ft | 0 kts | 178° |
| 2026-04-20 05:23 | 51.46597 | -0.48468 | 86 ft | 3 kts | 178° |
| 2026-04-20 05:23 | 51.46559 | -0.48467 | 87 ft | 10 kts | 178° |
| 2026-04-20 05:23 | 51.46480 | -0.48439 | 87 ft | 13 kts | 125° |
| 2026-04-20 05:23 | 51.46477 | -0.48352 | 87 ft | 0 kts | 89° |
| 2026-04-20 05:24 | 51.46478 | -0.48343 | 87 ft | 2 kts | 89° |
| 2026-04-20 05:24 | 51.46478 | -0.48310 | 88 ft | 4 kts | 89° |
| 2026-04-20 05:24 | 51.46479 | -0.48234 | 89 ft | 18 kts | 89° |
| 2026-04-20 05:24 | 51.46484 | -0.47556 | 89 ft | 100 kts | 89° |
| 2026-04-20 05:25 | 51.46491 | -0.46117 | 97 ft | 156 kts | 89° |
| 2026-04-20 05:25 | 51.46477 | -0.44315 | 675 ft | 165 kts | 91° |
| 2026-04-20 05:25 | 51.46445 | -0.42403 | 1360 ft | 174 kts | 84° |
| 2026-04-20 05:25 | 51.46871 | -0.40523 | 1879 ft | 192 kts | 53° |
| 2026-04-20 05:26 | 51.47809 | -0.38792 | 2291 ft | 218 kts | 49° |
| 2026-04-20 05:26 | 51.48854 | -0.36848 | 2887 ft | 241 kts | 49° |
| 2026-04-20 05:26 | 51.50125 | -0.35044 | 3829 ft | 248 kts | 28° |
| 2026-04-20 05:26 | 51.51793 | -0.34322 | 4879 ft | 254 kts | 1° |
| 2026-04-20 05:27 | 51.53518 | -0.34980 | 5911 ft | 260 kts | 336° |
| 2026-04-20 05:27 | 51.55151 | -0.36253 | 6969 ft | 262 kts | 335° |
| 2026-04-20 05:27 | 51.56793 | -0.37553 | 7973 ft | 264 kts | 335° |
| 2026-04-20 05:27 | 51.58444 | -0.38863 | 8990 ft | 266 kts | 334° |
| 2026-04-20 05:28 | 51.60106 | -0.40177 | 9994 ft | 267 kts | 334° |
| 2026-04-20 05:28 | 51.61799 | -0.41517 | 10681 ft | 281 kts | 333° |
| 2026-04-20 05:28 | 51.63611 | -0.42949 | 11163 ft | 297 kts | 333° |
| 2026-04-20 05:28 | 51.65482 | -0.44426 | 11939 ft | 301 kts | 333° |
| 2026-04-20 05:29 | 51.67373 | -0.45915 | 12785 ft | 304 kts | 333° |
| 2026-04-20 05:29 | 51.69282 | -0.47411 | 13637 ft | 307 kts | 333° |
| 2026-04-20 05:29 | 51.71213 | -0.48922 | 14438 ft | 310 kts | 333° |
| 2026-04-20 05:29 | 51.73163 | -0.50452 | 15195 ft | 312 kts | 332° |
| 2026-04-20 05:30 | 51.75117 | -0.51995 | 15942 ft | 314 kts | 332° |
| 2026-04-20 05:30 | 51.77080 | -0.53547 | 16704 ft | 316 kts | 332° |
| 2026-04-20 05:30 | 51.79043 | -0.55091 | 17455 ft | 318 kts | 333° |
| 2026-04-20 05:30 | 51.81078 | -0.56544 | 18232 ft | 321 kts | 335° |
| 2026-04-20 05:31 | 51.83191 | -0.57932 | 18848 ft | 327 kts | 336° |
| 2026-04-20 05:31 | 51.85295 | -0.59263 | 19471 ft | 330 kts | 336° |
| 2026-04-20 05:31 | 51.87441 | -0.60617 | 20157 ft | 332 kts | 336° |
| 2026-04-20 05:31 | 51.89602 | -0.61994 | 20844 ft | 334 kts | 335° |
| 2026-04-20 05:32 | 51.91770 | -0.63392 | 21524 ft | 336 kts | 335° |
| 2026-04-20 05:32 | 51.93947 | -0.64812 | 22191 ft | 338 kts | 335° |
| 2026-04-20 05:32 | 51.96135 | -0.66254 | 22853 ft | 340 kts | 334° |
| 2026-04-20 05:32 | 51.98334 | -0.67712 | 23511 ft | 343 kts | 334° |
| 2026-04-20 05:33 | 52.00545 | -0.69180 | 24120 ft | 345 kts | 334° |
| 2026-04-20 05:33 | 52.02778 | -0.70660 | 24672 ft | 347 kts | 333° |
| 2026-04-20 05:33 | 52.05024 | -0.72144 | 25227 ft | 349 kts | 333° |
| 2026-04-20 05:33 | 52.07281 | -0.73637 | 25711 ft | 352 kts | 333° |
| 2026-04-20 05:34 | 52.09565 | -0.75146 | 26225 ft | 354 kts | 333° |
| 2026-04-20 05:34 | 52.11851 | -0.76659 | 26752 ft | 356 kts | 332° |
| 2026-04-20 05:34 | 52.16456 | -0.79727 | 27770 ft | 359 kts | 332° |
| 2026-04-20 05:35 | 52.18768 | -0.81269 | 28269 ft | 361 kts | 331° |
| 2026-04-20 05:35 | 52.21071 | -0.82803 | 28749 ft | 362 kts | 331° |
| 2026-04-20 05:35 | 52.23407 | -0.84360 | 29231 ft | 364 kts | 330° |
| 2026-04-20 05:35 | 52.25692 | -0.86181 | 29691 ft | 359 kts | 323° |
| 2026-04-20 05:36 | 52.27801 | -0.88280 | 30184 ft | 360 kts | 322° |
| 2026-04-20 05:36 | 52.29950 | -0.90418 | 30606 ft | 364 kts | 323° |
| 2026-04-20 05:36 | 52.32128 | -0.92587 | 30930 ft | 368 kts | 323° |
| 2026-04-20 05:36 | 52.34324 | -0.94779 | 31258 ft | 372 kts | 323° |
| 2026-04-20 05:37 | 52.36542 | -0.96990 | 31584 ft | 375 kts | 324° |
| 2026-04-20 05:37 | 52.38782 | -0.99225 | 31873 ft | 379 kts | 324° |
| 2026-04-20 05:37 | 52.41039 | -1.01475 | 32219 ft | 381 kts | 324° |
| 2026-04-20 05:37 | 52.43291 | -1.03723 | 32294 ft | 374 kts | 324° |
| 2026-04-20 05:38 | 52.45462 | -1.05888 | 32299 ft | 357 kts | 324° |
| 2026-04-20 05:38 | 52.47537 | -1.07958 | 32299 ft | 345 kts | 323° |
| 2026-04-20 05:38 | 52.51587 | -1.12029 | 32292 ft | 339 kts | 323° |
| 2026-04-20 05:39 | 52.55630 | -1.16119 | 32286 ft | 342 kts | 324° |
| 2026-04-20 05:39 | 52.59690 | -1.20222 | 32279 ft | 343 kts | 324° |
| 2026-04-20 05:40 | 52.63761 | -1.24335 | 32275 ft | 343 kts | 324° |
| 2026-04-20 05:40 | 52.67835 | -1.28459 | 32275 ft | 343 kts | 324° |
| 2026-04-20 05:41 | 52.71902 | -1.32592 | 32278 ft | 343 kts | 324° |
| 2026-04-20 05:41 | 52.75943 | -1.36708 | 32371 ft | 343 kts | 324° |
| 2026-04-20 05:42 | 52.80030 | -1.40877 | 32318 ft | 347 kts | 325° |
| 2026-04-20 05:42 | 52.84146 | -1.45090 | 32306 ft | 349 kts | 325° |
| 2026-04-20 05:43 | 52.88285 | -1.49339 | 32305 ft | 351 kts | 325° |
| 2026-04-20 05:43 | 52.92434 | -1.53601 | 32297 ft | 350 kts | 324° |
| 2026-04-20 05:44 | 52.96568 | -1.57854 | 32314 ft | 349 kts | 324° |
| 2026-04-20 05:44 | 53.00691 | -1.62119 | 32351 ft | 350 kts | 325° |
| 2026-04-20 05:45 | 53.04849 | -1.66393 | 32317 ft | 353 kts | 328° |
| 2026-04-20 05:45 | 53.09433 | -1.69494 | 32315 ft | 358 kts | 335° |
| 2026-04-20 05:46 | 53.14104 | -1.72391 | 32310 ft | 359 kts | 335° |
| 2026-04-20 05:46 | 53.18783 | -1.75289 | 32312 ft | 359 kts | 335° |
| 2026-04-20 05:47 | 53.22686 | -1.77711 | 32315 ft | 360 kts | 335° |
| 2026-04-20 05:47 | 53.27385 | -1.80638 | 32328 ft | 361 kts | 336° |
| 2026-04-20 05:48 | 53.32874 | -1.84076 | 32317 ft | 363 kts | 336° |
| 2026-04-20 05:48 | 53.36840 | -1.86562 | 32312 ft | 364 kts | 336° |
| 2026-04-20 05:49 | 53.41587 | -1.89537 | 32313 ft | 365 kts | 336° |
| 2026-04-20 05:49 | 53.46346 | -1.92524 | 32322 ft | 365 kts | 336° |
| 2026-04-20 05:50 | 53.51102 | -1.95524 | 32324 ft | 365 kts | 336° |
| 2026-04-20 05:50 | 53.55858 | -1.98531 | 32327 ft | 365 kts | 336° |
| 2026-04-20 05:51 | 53.60615 | -2.01544 | 32327 ft | 365 kts | 336° |
| 2026-04-20 05:51 | 53.65330 | -2.04550 | 32330 ft | 365 kts | 336° |
| 2026-04-20 05:52 | 53.70086 | -2.07590 | 32336 ft | 366 kts | 336° |
| 2026-04-20 05:52 | 53.74874 | -2.10655 | 32341 ft | 365 kts | 336° |
| 2026-04-20 05:53 | 53.79564 | -2.13785 | 32339 ft | 365 kts | 335° |
| 2026-04-20 05:53 | 53.84265 | -2.17031 | 32344 ft | 365 kts | 335° |
| 2026-04-20 05:54 | 53.88974 | -2.20288 | 32343 ft | 365 kts | 335° |
| 2026-04-20 05:54 | 53.93683 | -2.23510 | 32344 ft | 366 kts | 335° |
| 2026-04-20 05:55 | 53.98398 | -2.26742 | 32363 ft | 366 kts | 336° |
| 2026-04-20 05:55 | 54.03131 | -2.30005 | 32341 ft | 367 kts | 336° |
| 2026-04-20 05:56 | 54.07858 | -2.33272 | 32337 ft | 367 kts | 336° |
| 2026-04-20 05:56 | 54.12594 | -2.36543 | 32336 ft | 368 kts | 336° |
| 2026-04-20 05:57 | 54.17333 | -2.39824 | 32335 ft | 368 kts | 336° |
| 2026-04-20 05:57 | 54.22087 | -2.43139 | 32340 ft | 368 kts | 336° |
| 2026-04-20 05:58 | 54.26836 | -2.46440 | 32346 ft | 369 kts | 336° |
| 2026-04-20 05:58 | 54.31596 | -2.49770 | 32338 ft | 370 kts | 336° |
| 2026-04-20 05:59 | 54.36348 | -2.53113 | 32337 ft | 371 kts | 336° |
| 2026-04-20 05:59 | 54.41124 | -2.56467 | 32337 ft | 371 kts | 336° |
| 2026-04-20 06:00 | 54.45902 | -2.59831 | 32339 ft | 371 kts | 336° |
| 2026-04-20 06:00 | 54.50698 | -2.63221 | 32344 ft | 372 kts | 336° |
| 2026-04-20 06:01 | 54.55610 | -2.66704 | 32340 ft | 394 kts | 336° |
| 2026-04-20 06:01 | 54.58192 | -2.68539 | 32339 ft | 406 kts | 336° |
| 2026-04-20 06:01 | 54.60782 | -2.70376 | 32294 ft | 397 kts | 336° |
| 2026-04-20 06:02 | 54.63299 | -2.72159 | 32120 ft | 385 kts | 336° |
| 2026-04-20 06:02 | 54.65753 | -2.73902 | 31768 ft | 379 kts | 336° |
| 2026-04-20 06:02 | 54.68191 | -2.75636 | 31022 ft | 383 kts | 336° |
| 2026-04-20 06:02 | 54.70661 | -2.77397 | 30367 ft | 385 kts | 336° |
| 2026-04-20 06:03 | 54.73132 | -2.79165 | 29749 ft | 382 kts | 336° |
| 2026-04-20 06:03 | 54.75587 | -2.80927 | 29135 ft | 380 kts | 336° |
| 2026-04-20 06:03 | 54.78018 | -2.82671 | 28575 ft | 377 kts | 336° |
| 2026-04-20 06:03 | 54.80432 | -2.84404 | 28055 ft | 374 kts | 336° |
| 2026-04-20 06:04 | 54.82822 | -2.86121 | 27535 ft | 371 kts | 336° |
| 2026-04-20 06:04 | 54.85168 | -2.87812 | 27071 ft | 368 kts | 336° |
| 2026-04-20 06:04 | 54.87549 | -2.89528 | 26602 ft | 365 kts | 336° |
| 2026-04-20 06:04 | 54.89886 | -2.91214 | 26157 ft | 362 kts | 336° |
| 2026-04-20 06:05 | 54.92205 | -2.92891 | 25723 ft | 360 kts | 336° |
| 2026-04-20 06:05 | 54.94476 | -2.94535 | 25315 ft | 357 kts | 336° |
| 2026-04-20 06:05 | 54.96797 | -2.96214 | 24903 ft | 355 kts | 336° |
| 2026-04-20 06:05 | 54.99068 | -2.97860 | 24483 ft | 353 kts | 337° |
| 2026-04-20 06:06 | 55.01307 | -2.99484 | 24069 ft | 352 kts | 336° |
| 2026-04-20 06:06 | 55.03555 | -3.01119 | 23602 ft | 349 kts | 336° |
| 2026-04-20 06:06 | 55.05793 | -3.02747 | 23102 ft | 347 kts | 336° |
| 2026-04-20 06:06 | 55.08014 | -3.04364 | 22604 ft | 345 kts | 336° |
| 2026-04-20 06:07 | 55.10218 | -3.05974 | 22094 ft | 342 kts | 337° |
| 2026-04-20 06:07 | 55.12410 | -3.07579 | 21591 ft | 340 kts | 337° |
| 2026-04-20 06:07 | 55.14580 | -3.09171 | 21092 ft | 338 kts | 337° |
| 2026-04-20 06:07 | 55.16743 | -3.10758 | 20592 ft | 336 kts | 337° |
| 2026-04-20 06:08 | 55.18888 | -3.12329 | 20108 ft | 334 kts | 337° |
| 2026-04-20 06:08 | 55.21022 | -3.13893 | 19630 ft | 332 kts | 337° |
| 2026-04-20 06:08 | 55.23145 | -3.15452 | 19160 ft | 330 kts | 337° |
| 2026-04-20 06:08 | 55.25257 | -3.17007 | 18685 ft | 328 kts | 337° |
| 2026-04-20 06:09 | 55.27355 | -3.18552 | 18168 ft | 327 kts | 337° |
| 2026-04-20 06:09 | 55.29497 | -3.19830 | 17661 ft | 325 kts | 348° |
| 2026-04-20 06:09 | 55.31728 | -3.20131 | 17361 ft | 318 kts | 2° |
| 2026-04-20 06:09 | 55.33885 | -3.19656 | 17202 ft | 308 kts | 7° |
| 2026-04-20 06:10 | 55.35987 | -3.19077 | 16798 ft | 306 kts | 7° |
| 2026-04-20 06:10 | 55.38082 | -3.18477 | 16403 ft | 303 kts | 8° |
| 2026-04-20 06:10 | 55.40151 | -3.17872 | 16033 ft | 301 kts | 8° |
| 2026-04-20 06:10 | 55.42212 | -3.17265 | 15663 ft | 299 kts | 8° |
| 2026-04-20 06:11 | 55.44252 | -3.16668 | 15304 ft | 296 kts | 8° |
| 2026-04-20 06:11 | 55.46283 | -3.16083 | 14942 ft | 295 kts | 8° |
| 2026-04-20 06:11 | 55.48300 | -3.15501 | 14586 ft | 293 kts | 8° |
| 2026-04-20 06:11 | 55.50307 | -3.14920 | 14229 ft | 292 kts | 8° |
| 2026-04-20 06:12 | 55.52309 | -3.14339 | 13843 ft | 290 kts | 8° |
| 2026-04-20 06:12 | 55.54297 | -3.13764 | 13475 ft | 288 kts | 8° |
| 2026-04-20 06:12 | 55.56262 | -3.13199 | 13121 ft | 285 kts | 8° |
| 2026-04-20 06:12 | 55.58217 | -3.12637 | 12766 ft | 283 kts | 8° |
| 2026-04-20 06:13 | 55.60157 | -3.12075 | 12418 ft | 281 kts | 8° |
| 2026-04-20 06:13 | 55.62059 | -3.11521 | 12072 ft | 280 kts | 8° |
| 2026-04-20 06:13 | 55.63975 | -3.10964 | 11723 ft | 278 kts | 8° |
| 2026-04-20 06:13 | 55.65878 | -3.10411 | 11378 ft | 277 kts | 8° |
| 2026-04-20 06:14 | 55.67782 | -3.09856 | 11033 ft | 276 kts | 8° |
| 2026-04-20 06:14 | 55.69669 | -3.09307 | 10696 ft | 275 kts | 8° |
| 2026-04-20 06:14 | 55.71551 | -3.08763 | 10350 ft | 273 kts | 8° |
| 2026-04-20 06:14 | 55.73427 | -3.08219 | 9993 ft | 273 kts | 8° |
| 2026-04-20 06:15 | 55.75296 | -3.07675 | 9582 ft | 273 kts | 8° |
| 2026-04-20 06:15 | 55.77156 | -3.07129 | 9283 ft | 269 kts | 8° |
| 2026-04-20 06:15 | 55.78998 | -3.06586 | 8953 ft | 268 kts | 8° |
| 2026-04-20 06:15 | 55.80827 | -3.06047 | 8617 ft | 266 kts | 8° |
| 2026-04-20 06:16 | 55.82653 | -3.05509 | 8282 ft | 265 kts | 8° |
| 2026-04-20 06:16 | 55.84473 | -3.04976 | 7944 ft | 264 kts | 8° |
| 2026-04-20 06:16 | 55.86284 | -3.04437 | 7596 ft | 264 kts | 8° |
| 2026-04-20 06:16 | 55.88094 | -3.03866 | 7255 ft | 264 kts | 8° |
| 2026-04-20 06:17 | 55.89905 | -3.03281 | 6907 ft | 264 kts | 8° |
| 2026-04-20 06:17 | 55.91719 | -3.02689 | 6395 ft | 269 kts | 9° |
| 2026-04-20 06:17 | 55.93603 | -3.02085 | 5642 ft | 278 kts | 9° |
| 2026-04-20 06:17 | 55.95447 | -3.01513 | 5375 ft | 262 kts | 9° |
| 2026-04-20 06:18 | 55.97254 | -3.00959 | 5366 ft | 260 kts | 9° |
| 2026-04-20 06:18 | 55.98970 | -3.00540 | 5359 ft | 238 kts | 357° |
| 2026-04-20 06:18 | 56.00540 | -3.01025 | 5356 ft | 223 kts | 339° |
| 2026-04-20 06:18 | 56.01916 | -3.02323 | 4976 ft | 229 kts | 321° |
| 2026-04-20 06:19 | 56.02996 | -3.04438 | 4254 ft | 231 kts | 300° |
| 2026-04-20 06:19 | 56.03546 | -3.07088 | 3555 ft | 228 kts | 277° |
| 2026-04-20 06:19 | 56.03493 | -3.09897 | 3307 ft | 223 kts | 262° |
| 2026-04-20 06:19 | 56.03265 | -3.12587 | 3199 ft | 213 kts | 256° |
| 2026-04-20 06:20 | 56.02774 | -3.14985 | 3168 ft | 199 kts | 243° |
| 2026-04-20 06:20 | 56.02113 | -3.17148 | 2870 ft | 197 kts | 238° |
| 2026-04-20 06:20 | 56.01369 | -3.19178 | 2488 ft | 193 kts | 234° |
| 2026-04-20 06:20 | 56.00602 | -3.21127 | 2110 ft | 189 kts | 235° |
| 2026-04-20 06:21 | 55.99897 | -3.22996 | 1913 ft | 172 kts | 237° |
| 2026-04-20 06:21 | 55.99281 | -3.24731 | 1702 ft | 161 kts | 237° |
| 2026-04-20 06:21 | 55.98688 | -3.26407 | 1476 ft | 157 kts | 238° |
| 2026-04-20 06:21 | 55.98121 | -3.28057 | 1266 ft | 155 kts | 238° |
| 2026-04-20 06:22 | 55.97547 | -3.29681 | 1048 ft | 154 kts | 238° |
| 2026-04-20 06:22 | 55.96992 | -3.31305 | 822 ft | 152 kts | 240° |
| 2026-04-20 06:22 | 55.96454 | -3.32921 | 551 ft | 151 kts | 240° |
| 2026-04-20 06:22 | 55.95919 | -3.34517 | 299 ft | 148 kts | 240° |
| 2026-04-20 06:23 | 55.95409 | -3.36055 | 112 ft | 137 kts | 238° |
| 2026-04-20 06:23 | 55.95016 | -3.37162 | 111 ft | 64 kts | 238° |
| 2026-04-20 06:23 | 55.94837 | -3.37699 | 114 ft | 43 kts | 240° |
| 2026-04-20 06:23 | 55.94735 | -3.38010 | 113 ft | 20 kts | 233° |
| 2026-04-20 06:24 | 55.94648 | -3.38001 | 115 ft | 9 kts | 150° |
| 2026-04-20 06:24 | 55.94588 | -3.37923 | 116 ft | 12 kts | 111° |
| 2026-04-20 06:24 | 55.94629 | -3.37774 | 115 ft | 16 kts | 59° |
| 2026-04-20 06:24 | 55.94692 | -3.37585 | 112 ft | 20 kts | 59° |
| 2026-04-20 06:25 | 55.94769 | -3.37357 | 114 ft | 24 kts | 59° |
| 2026-04-20 06:25 | 55.94862 | -3.37084 | 115 ft | 27 kts | 58° |
| 2026-04-20 06:25 | 55.94926 | -3.36893 | 116 ft | 12 kts | 68° |
| 2026-04-20 06:25 | 55.94899 | -3.36746 | 116 ft | 14 kts | 76° |
| 2026-04-20 06:26 | 55.94933 | -3.36609 | 116 ft | 5 kts | 109° |
| 2026-04-20 06:26 | 55.94890 | -3.36559 | 114 ft | 6 kts | 151° |
| 2026-04-20 06:26 | 55.94880 | -3.36549 | 113 ft | 0 kts | 151° |
| 2026-04-20 06:26 | 55.95424 | -3.36011 | 110 ft | 0 kts | 238° |
| 2026-04-20 06:27 | 55.95413 | -3.36043 | 110 ft | 16 kts | 238° |
| 2026-04-20 06:27 | 55.95295 | -3.36353 | 111 ft | 30 kts | 217° |
| 2026-04-20 06:27 | 55.95170 | -3.36318 | 114 ft | 16 kts | 148° |
| 2026-04-20 06:27 | 55.95083 | -3.36386 | 113 ft | 16 kts | 199° |
| 2026-04-20 06:28 | 55.94970 | -3.36387 | 113 ft | 14 kts | 159° |
| 2026-04-20 06:28 | 55.94943 | -3.36360 | 114 ft | 0 kts | 150° |